SKVV/VVC METAR and TAF weather

Enter ICAO airport designator
Station Type Date Time Source
SKVV METAR 2019/10/23 20:00 UTC NOAA

SKVV 232000Z 28005KT 8000 –DZ SCT015 BKN090 23/22 A2982


Station Type Date Time Source
SKVV Decoded METAR 2019/10/23 20:00 UTC NOAA

Villavicencio / Vanguardia, Colombia (SKVV) 04-10N 073-37W 431M
Oct 23, 2019 - 04:00 PM EDT / 2019.10.23 2000 UTC
Wind: from the W (280 degrees) at 6 MPH (5 KT):0
Visibility: 4 mile(s):0
Sky conditions: mostly cloudy
Temperature: 73 F (23 C)
Dew Point: 71 F (22 C)
Relative Humidity: 94%
Pressure (altimeter): 29.82 in. Hg (1009 hPa)
ob: SKVV 232000Z 28005KT 8000 –DZ SCT015 BKN090 23/22 A2982
cycle: 20

Station Type Date Time Source
SKVV TAF UTC NOAA

Error!

Example: see airport list